Time;durP1;ratioP1;P1;durP2;ratioP2;P2;SDS_P1;SDS_P2;PMS_P1;PMS_P2;Temp;Humidity;BMP_temperature;BMP_pressure;BME280_temperature;BME280_humidity;BME280_pressure;Samples;Min_cycle;Max_cycle;Signal;HPM_P1;HPM_P2
2024/03/13 00:01:07;;;;;;;13.57;8.20;;;;;;;9.47;88.37;98879.16;4857700;29;43178;-76
2024/03/13 00:03:37;;;;;;;12.43;8.37;;;;;;;9.46;88.64;98881.91;4857982;29;44005;-79
2024/03/13 00:06:05;;;;;;;14.57;8.73;;;;;;;9.43;88.86;98869.72;4858003;29;40074;-77
2024/03/13 00:08:32;;;;;;;15.27;9.33;;;;;;;9.45;89.18;98867.84;4842669;29;40558;-79
2024/03/13 00:11:00;;;;;;;12.47;8.77;;;;;;;9.43;89.68;98872.34;4873198;29;42841;-78
2024/03/13 00:13:28;;;;;;;11.40;7.83;;;;;;;9.43;88.87;98876.78;4857619;29;42592;-76
2024/03/13 00:15:57;;;;;;;13.60;8.93;;;;;;;9.39;89.59;98878.78;4859506;29;40730;-75
2024/03/13 00:18:24;;;;;;;13.63;8.47;;;;;;;9.39;89.78;98870.84;4857964;29;40691;-77
2024/03/13 00:20:53;;;;;;;12.50;7.83;;;;;;;9.42;88.65;98881.22;4859365;29;42870;-77
2024/03/13 00:23:21;;;;;;;13.57;8.30;;;;;;;9.38;89.25;98879.72;4873510;29;42207;-77
2024/03/13 00:25:49;;;;;;;11.87;8.07;;;;;;;9.35;89.25;98871.94;4858143;29;41496;-73
2024/03/13 00:28:16;;;;;;;12.23;7.70;;;;;;;9.36;89.20;98873.66;4858866;29;41904;-79
2024/03/13 00:30:44;;;;;;;13.83;8.40;;;;;;;9.36;89.23;98876.28;4859730;29;43180;-78
2024/03/13 00:33:12;;;;;;;14.00;7.33;;;;;;;9.36;88.85;98884.22;4874140;29;43303;-78
2024/03/13 00:35:39;;;;;;;11.30;7.67;;;;;;;9.33;89.16;98876.47;4858639;29;40163;-78
2024/03/13 00:38:11;;;;;;;11.37;7.50;;;;;;;9.31;89.11;98880.97;4858480;29;41755;-75
2024/03/13 00:40:39;;;;;;;10.90;7.00;;;;;;;9.25;88.86;98873.41;4871374;29;42746;-75
2024/03/13 00:43:06;;;;;;;12.73;7.57;;;;;;;9.26;89.20;98869.84;4858252;29;41261;-77
2024/03/13 00:45:34;;;;;;;11.73;7.20;;;;;;;9.23;89.58;98872.66;4843456;29;40167;-77
2024/03/13 00:48:01;;;;;;;9.83;6.33;;;;;;;9.21;88.77;98861.31;4858488;29;40390;-76
2024/03/13 00:50:29;;;;;;;9.27;6.63;;;;;;;9.23;89.16;98870.00;4859843;29;42697;-78
2024/03/13 00:52:56;;;;;;;10.27;6.20;;;;;;;9.26;88.97;98867.19;4858275;29;41219;-77
2024/03/13 00:55:27;;;;;;;8.13;6.23;;;;;;;9.26;88.87;98864.56;4874332;29;41245;-78
2024/03/13 00:57:54;;;;;;;9.27;5.97;;;;;;;9.24;88.81;98866.44;4858269;29;41075;-79
2024/03/13 01:00:28;;;;;;;7.97;5.53;;;;;;;9.23;89.22;98864.72;4856576;29;41524;-77
2024/03/13 01:02:56;;;;;;;8.30;5.87;;;;;;;9.21;89.10;98866.59;4855714;29;43122;-76
2024/03/13 01:05:24;;;;;;;9.43;5.83;;;;;;;9.24;88.66;98872.56;4858571;29;39908;-73
2024/03/13 01:07:52;;;;;;;7.47;5.10;;;;;;;9.26;88.38;98861.91;4857308;29;41821;-79
2024/03/13 01:10:24;;;;;;;8.60;5.30;;;;;;;9.10;88.21;98832.00;4858345;29;42810;-77
2024/03/13 01:12:53;;;;;;;8.87;5.87;;;;;;;9.27;88.57;98863.63;4870418;29;43014;-78
2024/03/13 01:15:21;;;;;;;8.43;5.20;;;;;;;9.27;88.25;98866.25;4873009;29;40153;-78
2024/03/13 01:17:48;;;;;;;8.07;4.73;;;;;;;9.22;87.76;98852.44;4872417;29;41712;-76
2024/03/13 01:20:18;;;;;;;6.90;4.40;;;;;;;9.30;87.24;98860.78;4857336;29;43841;-79
2024/03/13 01:22:47;;;;;;;6.33;4.13;;;;;;;9.30;87.18;98863.41;4857182;29;41127;-75
2024/03/13 01:25:15;;;;;;;7.10;4.80;;;;;;;9.25;87.07;98854.91;4841713;29;40167;-77
2024/03/13 01:27:43;;;;;;;7.90;4.53;;;;;;;9.34;86.77;98867.59;4856975;29;41800;-75
2024/03/13 01:30:13;;;;;;;6.40;3.97;;;;;;;9.35;86.31;98871.94;4857349;29;42705;-78
2024/03/13 01:32:43;;;;;;;4.47;3.57;;;;;;;9.34;86.12;98862.31;4842673;29;41535;-77
2024/03/13 01:35:11;;;;;;;5.50;3.77;;;;;;;9.35;85.94;98864.03;4858200;29;40039;-78
2024/03/13 01:37:56;;;;;;;5.53;3.67;;;;;;;9.34;85.59;98854.38;4859038;29;41828;-79
2024/03/13 01:40:27;;;;;;;5.77;3.27;;;;;;;9.32;85.66;98857.09;4858932;29;42697;-79
2024/03/13 01:55:06;;;;;;;3.93;2.70;;;;;;;9.02;85.23;98846.47;4870416;29;40603;-75
2024/03/13 01:57:45;;;;;;;4.17;3.10;;;;;;;9.00;85.40;98847.53;4845564;29;38705;-79
2024/03/13 02:02:59;;;;;;;4.23;2.30;;;;;;;8.98;85.36;98849.41;4844315;29;43104;-78
2024/03/13 02:05:27;;;;;;;3.17;2.57;;;;;;;8.98;84.95;98852.03;4875534;29;42354;-79
2024/03/13 02:07:55;;;;;;;3.50;2.50;;;;;;;8.98;84.77;98852.91;4860953;29;39943;-80
2024/03/13 02:10:22;;;;;;;3.57;2.50;;;;;;;9.00;84.19;98848.38;4860660;29;42708;-79
2024/03/13 02:13:09;;;;;;;2.80;2.10;;;;;;;9.05;84.53;98844.59;4859472;29;41357;-76
2024/03/13 02:15:37;;;;;;;3.20;2.17;;;;;;;9.02;83.65;98841.19;4858323;29;42472;-78
2024/03/13 02:18:16;;;;;;;3.57;2.63;;;;;;;9.07;84.09;98842.75;4860004;29;40213;-78
2024/03/13 02:20:43;;;;;;;3.60;2.40;;;;;;;9.09;83.76;98840.88;4872607;29;41455;-78
2024/03/13 02:23:12;;;;;;;3.00;2.30;;;;;;;9.07;83.05;98832.16;4844041;29;43880;-78
2024/03/13 02:25:40;;;;;;;2.67;2.13;;;;;;;9.14;83.17;98839.69;4859466;29;42863;-75
2024/03/13 02:28:08;;;;;;;3.80;2.83;;;;;;;9.14;83.05;98839.69;4844402;29;39927;-76
2024/03/13 02:30:35;;;;;;;5.20;3.13;;;;;;;9.02;83.53;98825.34;4829877;29;41545;-79
2024/03/13 02:33:03;;;;;;;5.50;3.77;;;;;;;9.09;83.45;98830.31;4845276;29;43886;-78
2024/03/13 02:35:32;;;;;;;6.87;4.07;;;;;;;9.07;84.09;98821.59;4829936;29;42448;-75
2024/03/13 02:38:00;;;;;;;5.93;3.83;;;;;;;9.02;84.01;98820.06;4845813;29;41737;-78
2024/03/13 02:40:27;;;;;;;5.63;4.20;;;;;;;8.98;84.59;98818.56;4830189;29;41748;-78
2024/03/13 02:42:55;;;;;;;6.77;4.57;;;;;;;8.95;84.05;98821.38;4829983;29;43866;-75
2024/03/13 02:45:24;;;;;;;6.03;4.47;;;;;;;8.92;84.36;98816.25;4829917;29;44109;-78
2024/03/13 02:47:52;;;;;;;7.83;5.10;;;;;;;8.87;84.57;98815.69;4845291;29;39946;-77
2024/03/13 02:50:20;;;;;;;7.63;5.03;;;;;;;8.77;85.69;98797.81;4830345;29;41976;-77
2024/03/13 02:52:48;;;;;;;6.90;4.70;;;;;;;8.72;85.57;98805.97;4845262;29;42693;-74
2024/03/13 02:55:15;;;;;;;7.93;5.20;;;;;;;8.69;85.84;98800.84;4814921;29;42648;-77
2024/03/13 02:57:44;;;;;;;8.00;4.80;;;;;;;8.69;85.84;98792.94;4829733;29;40025;-76
2024/03/13 03:00:14;;;;;;;7.03;4.67;;;;;;;8.72;85.98;98799.84;4843762;29;41726;-75
2024/03/13 03:02:41;;;;;;;5.53;4.13;;;;;;;8.74;85.84;98804.09;4813742;29;42777;-79
2024/03/13 03:05:09;;;;;;;5.60;4.10;;;;;;;8.76;85.88;98802.22;4828752;29;42694;-80
2024/03/13 03:07:37;;;;;;;6.30;3.80;;;;;;;8.78;85.58;98802.97;4813896;29;40010;-76
2024/03/13 03:10:04;;;;;;;4.80;3.77;;;;;;;8.75;85.93;98789.09;4844117;29;41718;-79
2024/03/13 03:12:32;;;;;;;5.20;3.40;;;;;;;8.69;85.10;98782.38;4843762;29;42577;-78
2024/03/13 03:15:01;;;;;;;4.77;3.60;;;;;;;8.74;85.50;98797.97;4843873;29;42306;-75
2024/03/13 03:17:28;;;;;;;4.67;2.67;;;;;;;8.69;85.14;98806.13;4813554;29;38526;-76
2024/03/13 03:19:56;;;;;;;4.20;3.20;;;;;;;8.64;85.53;98809.03;4843874;29;41605;-79
2024/03/13 03:22:24;;;;;;;6.33;3.70;;;;;;;8.60;85.02;98801.38;4828410;29;41885;-79
2024/03/13 03:24:51;;;;;;;3.97;2.90;;;;;;;8.55;85.08;98800.75;4828526;29;43198;-75
2024/03/13 03:27:19;;;;;;;6.13;3.03;;;;;;;8.52;85.09;98808.88;4813123;29;40326;-78
2024/03/13 03:29:47;;;;;;;3.63;2.80;;;;;;;8.47;85.22;98801.19;4829015;29;41781;-73
2024/03/13 03:32:15;;;;;;;5.27;2.80;;;;;;;8.43;84.97;98791.72;4829399;29;42641;-77
2024/03/13 03:34:43;;;;;;;3.07;2.53;;;;;;;8.54;84.88;98809.59;4829622;29;42328;-78
2024/03/13 03:37:10;;;;;;;4.27;2.67;;;;;;;8.56;84.37;98820.94;4829301;29;38802;-78
2024/03/13 03:39:38;;;;;;;4.90;2.93;;;;;;;8.55;84.97;98821.88;4829305;29;42653;-80
2024/03/13 03:42:06;;;;;;;4.30;3.00;;;;;;;8.56;85.79;98826.22;4829323;29;43547;-76
2024/03/13 03:44:34;;;;;;;4.27;2.60;;;;;;;8.57;85.59;98823.50;4844460;29;41290;-78
2024/03/13 03:47:01;;;;;;;4.07;2.50;;;;;;;8.51;85.63;98813.28;4844735;29;40170;-78
2024/03/13 03:49:29;;;;;;;3.93;2.90;;;;;;;8.52;85.41;98815.00;4828804;29;40700;-78
2024/03/13 03:51:57;;;;;;;3.90;3.07;;;;;;;8.61;85.70;98824.19;4829585;29;42840;-76
2024/03/13 03:54:25;;;;;;;5.30;3.27;;;;;;;8.61;85.37;98824.19;4828879;29;42505;-76
2024/03/13 03:56:53;;;;;;;4.70;2.93;;;;;;;8.63;85.88;98822.31;4829217;29;40109;-77
2024/03/13 03:59:23;;;;;;;5.70;3.33;;;;;;;8.62;85.72;98825.91;4843244;29;41526;-75
2024/03/13 04:01:51;;;;;;;4.60;3.20;;;;;;;8.52;86.06;98824.69;4813185;29;41859;-76
2024/03/13 04:04:18;;;;;;;3.43;2.70;;;;;;;8.59;85.96;98831.34;4827929;29;43239;-77
2024/03/13 04:06:46;;;;;;;4.47;3.03;;;;;;;8.56;86.64;98826.22;4843529;29;38910;-79
2024/03/13 04:09:19;;;;;;;4.97;3.70;;;;;;;8.48;87.44;98824.00;4812424;29;41719;-79
2024/03/13 04:11:46;;;;;;;5.43;3.20;;;;;;;8.41;87.92;98824.41;4829211;29;43231;-78
2024/03/13 04:14:14;;;;;;;6.03;3.70;;;;;;;8.35;87.66;98832.66;4827038;29;41058;-76
2024/03/13 04:16:44;;;;;;;5.07;3.27;;;;;;;8.28;87.79;98832.94;4843189;29;40239;-79
2024/03/13 04:19:12;;;;;;;4.80;3.20;;;;;;;8.15;87.96;98821.38;4843537;29;41706;-81
2024/03/13 04:21:40;;;;;;;3.63;2.87;;;;;;;8.22;87.88;98841.22;4827931;29;41596;-78
2024/03/13 04:24:08;;;;;;;3.90;3.07;;;;;;;8.20;87.94;98835.16;4842736;29;42229;-78
2024/03/13 04:26:40;;;;;;;3.63;2.70;;;;;;;8.18;88.17;98830.88;4812927;29;39660;-77
2024/03/13 04:29:07;;;;;;;4.40;3.50;;;;;;;8.17;88.49;98824.75;4827940;29;42728;-76
2024/03/13 04:31:35;;;;;;;4.87;3.40;;;;;;;8.17;88.33;98827.41;4848501;29;43894;-74
2024/03/13 04:34:02;;;;;;;6.33;3.70;;;;;;;8.10;88.28;98817.25;4838798;29;42237;-74
2024/03/13 04:36:31;;;;;;;5.17;3.70;;;;;;;8.18;88.38;98826.47;4844583;29;40122;-76
2024/03/13 07:34:43;;;;;;;4.33;3.23;;;;;;;9.43;99.33;98919.94;5166527;27;20875;-76
2024/03/13 07:37:11;;;;;;;4.77;3.03;;;;;;;9.99;94.42;98929.88;5132469;27;40152;-76
2024/03/13 07:39:38;;;;;;;4.17;3.00;;;;;;;10.48;90.70;98937.56;5115062;27;40973;-79
2024/03/13 07:42:06;;;;;;;3.73;3.03;;;;;;;10.87;86.71;98942.22;5098369;27;41933;-76
2024/03/13 07:44:34;;;;;;;3.87;2.90;;;;;;;11.26;82.42;98952.06;5132453;27;43363;-76
2024/03/13 07:47:02;;;;;;;4.10;3.07;;;;;;;11.46;80.76;98938.41;5115427;27;40222;-79
2024/03/13 07:49:30;;;;;;;3.20;2.67;;;;;;;11.73;79.18;98946.38;5115132;27;41910;-74
2024/03/13 07:52:01;;;;;;;4.73;2.97;;;;;;;12.05;77.06;98959.31;5132304;27;43259;-78
2024/03/13 07:54:37;;;;;;;3.37;2.53;;;;;;;12.30;75.40;98963.84;5129775;27;42162;-78
2024/03/13 07:57:05;;;;;;;4.37;3.10;;;;;;;12.57;73.49;98964.63;5098604;27;39064;-80
2024/03/13 07:59:33;;;;;;;4.30;2.53;;;;;;;12.84;71.75;98977.81;5113439;27;40700;-77
2024/03/13 08:02:00;;;;;;;3.03;2.50;;;;;;;13.07;70.20;98979.69;5130482;27;43910;-75
2024/03/13 08:04:32;;;;;;;3.87;2.50;;;;;;;13.34;68.31;98984.03;5114629;27;41074;-79
2024/03/13 08:06:59;;;;;;;2.93;2.27;;;;;;;13.67;66.09;98986.91;5130844;27;39828;-77
2024/03/13 08:09:29;;;;;;;3.07;2.30;;;;;;;14.13;64.27;98996.81;5113780;27;40993;-77
2024/03/13 08:11:57;;;;;;;4.40;2.50;;;;;;;14.52;62.41;98985.84;5114227;27;42628;-76
2024/03/13 08:14:25;;;;;;;3.53;2.60;;;;;;;15.00;60.52;98991.00;5130525;27;42106;-78
2024/03/13 08:16:53;;;;;;;2.47;2.07;;;;;;;15.51;60.61;99001.19;5113499;27;39120;-75
2024/03/13 08:19:22;;;;;;;3.83;2.37;;;;;;;15.75;57.38;99017.94;5113677;27;42494;-77
2024/03/13 08:21:50;;;;;;;4.93;2.23;;;;;;;15.77;56.98;99008.81;5130635;27;42680;-79
2024/03/13 08:24:18;;;;;;;3.83;2.40;;;;;;;15.92;56.37;99030.78;5112906;27;41208;-75
2024/03/13 08:26:46;;;;;;;5.70;2.70;;;;;;;15.98;55.94;99021.38;5130531;27;40522;-81
2024/03/13 08:29:16;;;;;;;2.93;2.30;;;;;;;16.24;55.60;99019.25;5112782;27;42035;-78
2024/03/13 08:31:47;;;;;;;3.20;2.50;;;;;;;16.57;55.42;99020.94;5114828;27;43778;-80
2024/03/13 08:34:15;;;;;;;2.40;2.20;;;;;;;16.71;55.36;99029.50;5131369;27;43255;-78
2024/03/13 08:36:43;;;;;;;2.20;1.93;;;;;;;16.66;55.21;99031.72;5097605;27;39025;-81
2024/03/13 08:39:12;;;;;;;2.10;1.87;;;;;;;16.56;54.94;99030.78;5096844;27;40933;-80
2024/03/13 08:41:40;;;;;;;3.33;2.10;;;;;;;16.43;53.78;99041.66;5131473;27;42572;-79
2024/03/13 08:44:09;;;;;;;2.27;2.00;;;;;;;16.22;54.17;99021.19;5094320;27;41975;-79
2024/03/13 08:46:36;;;;;;;1.90;1.73;;;;;;;16.24;55.07;99030.78;5100809;27;40039;-77
2024/03/13 08:49:06;;;;;;;3.40;2.27;;;;;;;16.22;54.68;99042.56;5117051;27;42777;-79
2024/03/13 08:51:34;;;;;;;2.57;2.13;;;;;;;16.14;54.48;99048.56;5101172;27;41970;-77
2024/03/13 08:54:01;;;;;;;2.03;1.83;;;;;;;16.02;54.56;99036.19;5117076;27;42151;-77
2024/03/13 08:56:30;;;;;;;2.90;2.57;;;;;;;16.05;54.71;99041.31;5083528;27;38868;-79
2024/03/13 08:58:59;;;;;;;2.37;1.93;;;;;;;16.04;54.41;99040.47;5082612;27;41189;-76
2024/03/13 09:01:26;;;;;;;2.07;1.80;;;;;;;16.07;54.36;99050.03;5082175;27;43060;-80
2024/03/13 09:03:54;;;;;;;2.07;1.87;;;;;;;16.14;53.62;99054.75;5098931;27;42227;-74
2024/03/13 09:06:21;;;;;;;2.10;1.87;;;;;;;16.22;53.49;99053.25;5099108;27;39046;-77
2024/03/13 09:08:49;;;;;;;2.10;1.90;;;;;;;16.32;53.46;99059.56;5098678;27;42495;-80
2024/03/13 09:11:18;;;;;;;2.27;1.90;;;;;;;16.49;52.89;99059.84;5099015;27;43855;-80
2024/03/13 09:13:45;;;;;;;1.97;1.80;;;;;;;16.69;53.14;99047.50;5098609;27;41596;-77
2024/03/13 09:16:15;;;;;;;1.90;1.70;;;;;;;17.02;52.41;99059.00;5082481;27;39154;-78
2024/03/13 09:18:43;;;;;;;3.17;2.07;;;;;;;17.09;51.91;99062.81;5098761;27;41868;-75
2024/03/13 09:21:12;;;;;;;2.07;1.67;;;;;;;17.17;51.70;99063.03;5098853;27;43166;-75
2024/03/13 09:23:39;;;;;;;2.70;1.90;;;;;;;17.33;51.63;99058.03;5081922;27;41398;-76
2024/03/13 09:26:07;;;;;;;2.67;2.07;;;;;;;17.58;50.68;99062.94;5115984;27;39935;-84
2024/03/13 09:28:34;;;;;;;2.03;1.77;;;;;;;17.65;50.44;99054.41;5115762;27;41580;-82
2024/03/13 09:31:02;;;;;;;2.17;1.77;;;;;;;17.81;50.09;99062.75;5099783;27;42792;-76
2024/03/13 09:33:31;;;;;;;2.77;1.93;;;;;;;17.84;49.41;99076.72;5099228;27;43227;-78
2024/03/13 09:35:59;;;;;;;1.90;1.70;;;;;;;17.92;49.64;99076.94;5117261;27;41008;-81
2024/03/13 09:38:27;;;;;;;1.73;1.63;;;;;;;17.93;49.57;99072.38;5082847;27;41594;-78
2024/03/13 09:40:55;;;;;;;1.57;1.43;;;;;;;18.06;48.93;99078.34;5082755;27;42775;-76
2024/03/13 09:43:22;;;;;;;1.70;1.50;;;;;;;18.26;49.29;99079.25;5116443;27;42022;-76
2024/03/13 09:45:50;;;;;;;1.97;1.37;;;;;;;18.35;49.37;99083.75;5118222;27;40003;-75
2024/03/13 09:48:24;;;;;;;1.47;1.30;;;;;;;18.46;48.86;99086.31;5104893;27;41579;-76
2024/03/13 09:50:52;;;;;;;1.87;1.40;;;;;;;18.53;48.83;99086.63;5098908;27;43356;-74
2024/03/13 09:53:19;;;;;;;1.20;1.10;;;;;;;18.54;48.20;99097.22;5099370;27;41320;-76
2024/03/13 09:55:47;;;;;;;1.40;1.30;;;;;;;18.49;48.78;99090.56;5115454;27;39915;-78
2024/03/13 09:58:16;;;;;;;1.87;1.40;;;;;;;18.51;48.15;99094.81;5113570;27;42463;-75
2024/03/13 10:00:44;;;;;;;1.90;1.70;;;;;;;18.57;48.10;99096.91;5098669;27;42992;-77
2024/03/13 10:03:17;;;;;;;2.27;1.67;;;;;;;18.73;48.39;99103.59;5098061;27;42879;-74
2024/03/13 10:05:45;;;;;;;2.07;1.87;;;;;;;18.80;48.42;99105.53;5082054;27;40104;-80
2024/03/13 10:08:13;;;;;;;1.53;1.43;;;;;;;18.69;47.33;99086.06;5080731;27;40652;-77
2024/03/13 10:10:41;;;;;;;1.43;1.30;;;;;;;18.69;47.27;99103.00;5115097;27;43712;-78
2024/03/13 10:13:09;;;;;;;1.80;1.10;;;;;;;18.67;47.36;99099.63;5098118;27;41305;-77
2024/03/13 10:15:37;;;;;;;1.13;1.03;;;;;;;18.65;47.16;99094.41;5115235;27;39962;-78
2024/03/13 10:18:06;;;;;;;1.47;1.30;;;;;;;18.59;47.66;99081.56;5081190;27;41640;-81
2024/03/13 10:20:34;;;;;;;1.27;1.17;;;;;;;18.55;47.57;99068.53;5081358;27;42257;-78
2024/03/13 10:23:02;;;;;;;0.87;0.80;;;;;;;18.67;47.64;99067.41;5097670;27;42201;-79
2024/03/13 10:25:30;;;;;;;1.40;1.30;;;;;;;18.74;46.47;99076.63;5097962;27;40189;-78
2024/03/13 10:27:58;;;;;;;2.57;1.33;;;;;;;18.88;46.25;99086.06;5114628;27;41780;-77
2024/03/13 10:30:26;;;;;;;2.63;1.53;;;;;;;18.75;46.49;99078.31;5114845;27;42805;-77
2024/03/13 10:32:54;;;;;;;1.70;1.30;;;;;;;18.63;46.91;99079.44;5097966;27;42332;-82
2024/03/13 10:35:24;;;;;;;1.50;1.40;;;;;;;18.45;47.03;99079.25;5082097;27;39004;-78
2024/03/13 10:37:52;;;;;;;1.87;1.50;;;;;;;18.44;47.25;99077.56;5099244;27;42079;-79
2024/03/13 10:40:24;;;;;;;1.30;1.20;;;;;;;18.91;46.38;99088.47;5115103;27;43974;-79
2024/03/13 10:42:52;;;;;;;1.10;1.00;;;;;;;19.41;45.62;99077.50;5099672;27;40873;-79
2024/03/13 10:45:20;;;;;;;1.23;1.07;;;;;;;19.96;44.43;99086.47;5099029;27;39530;-78
2024/03/13 10:47:49;;;;;;;1.10;1.00;;;;;;;20.33;44.08;99081.84;5115212;27;42168;-77
2024/03/13 10:50:17;;;;;;;1.07;1.00;;;;;;;20.48;43.33;99100.19;5115256;27;42899;-78
2024/03/13 10:52:45;;;;;;;1.00;0.90;;;;;;;20.74;43.60;99101.13;5081333;27;42313;-82
2024/03/13 10:55:13;;;;;;;0.70;0.70;;;;;;;20.96;43.85;99092.56;5098281;27;41237;-76
2024/03/13 10:57:41;;;;;;;1.00;0.70;;;;;;;20.92;42.99;99099.25;5097966;27;41942;-80
2024/03/13 11:00:11;;;;;;;1.00;0.90;;;;;;;20.74;43.28;99101.97;5079706;27;42683;-80
2024/03/13 11:02:39;;;;;;;1.07;0.93;;;;;;;20.52;43.47;99090.84;5097278;27;40806;-79
2024/03/13 11:05:11;;;;;;;1.30;0.90;;;;;;;20.29;42.93;99085.84;5098167;27;40633;-77
2024/03/13 11:07:39;;;;;;;0.77;0.77;;;;;;;20.07;43.23;99080.88;5096499;27;40786;-79
2024/03/13 11:10:07;;;;;;;0.73;0.73;;;;;;;20.11;44.66;99079.59;5113904;27;43965;-79
2024/03/13 11:12:35;;;;;;;0.73;0.73;;;;;;;20.11;43.95;99076.91;5096798;27;42510;-76
2024/03/13 11:15:03;;;;;;;0.87;0.83;;;;;;;19.95;43.75;99071.34;5096997;27;39570;-77
2024/03/13 11:17:31;;;;;;;0.93;0.90;;;;;;;20.09;44.53;99073.53;5113758;27;42703;-78
2024/03/13 11:19:59;;;;;;;0.80;0.80;;;;;;;20.22;44.19;99083.91;5113778;27;43856;-77
2024/03/13 11:22:28;;;;;;;0.67;0.67;;;;;;;20.08;44.18;99079.88;5096839;27;42661;-80
2024/03/13 11:24:55;;;;;;;0.80;0.80;;;;;;;19.87;44.62;99073.94;5097209;27;40841;-81
2024/03/13 11:27:23;;;;;;;1.00;0.90;;;;;;;19.76;44.96;99068.75;5096840;27;41557;-78
2024/03/13 11:29:51;;;;;;;0.73;0.73;;;;;;;19.70;45.57;99071.03;5113938;27;43397;-80
2024/03/13 11:32:19;;;;;;;0.77;0.77;;;;;;;19.75;45.23;99059.00;5114105;27;42538;-77
2024/03/13 11:34:46;;;;;;;0.93;0.70;;;;;;;19.63;45.55;99056.50;5098190;27;40188;-77
2024/03/13 11:37:14;;;;;;;1.23;1.03;;;;;;;19.76;45.15;99064.22;5097194;27;42681;-79
2024/03/13 11:39:42;;;;;;;1.00;1.00;;;;;;;19.79;44.69;99061.22;5097504;27;42758;-77
2024/03/13 11:42:13;;;;;;;1.23;0.93;;;;;;;19.91;45.07;99057.34;5114631;27;43233;-79
2024/03/13 11:44:43;;;;;;;0.90;0.80;;;;;;;20.07;44.63;99060.22;5097608;27;40066;-77
2024/03/13 11:47:11;;;;;;;0.77;0.77;;;;;;;20.29;45.08;99050.88;5080283;27;43371;-78
2024/03/13 11:49:40;;;;;;;1.23;1.17;;;;;;;20.46;43.98;99059.13;5097351;27;43119;-76
2024/03/13 11:52:11;;;;;;;0.77;0.77;;;;;;;20.52;43.45;99053.16;5097636;27;42183;-77
2024/03/13 11:54:40;;;;;;;0.77;0.77;;;;;;;20.62;43.34;99053.94;5097448;27;40765;-78
2024/03/13 11:57:07;;;;;;;0.80;0.80;;;;;;;20.59;43.80;99049.69;5114690;27;42649;-74
2024/03/13 11:59:40;;;;;;;0.90;0.90;;;;;;;20.66;43.64;99044.53;5113157;27;42893;-78
2024/03/13 12:02:16;;;;;;;0.80;0.80;;;;;;;20.65;43.52;99026.69;5093303;27;43181;-81
2024/03/13 12:04:44;;;;;;;0.80;0.80;;;;;;;21.05;43.14;99045.84;5111433;27;40337;-76
2024/03/13 12:07:13;;;;;;;0.80;0.80;;;;;;;21.18;42.49;99050.81;5096585;27;42484;-81
2024/03/13 12:09:41;;;;;;;1.10;1.00;;;;;;;21.20;42.53;99042.63;5079447;27;41872;-77
2024/03/13 12:12:09;;;;;;;1.03;0.93;;;;;;;21.24;42.55;99044.00;5096298;27;41635;-78
2024/03/13 12:14:39;;;;;;;0.97;0.93;;;;;;;20.94;42.90;99040.72;5079535;27;41097;-79
2024/03/13 12:17:09;;;;;;;1.30;1.20;;;;;;;20.49;43.43;99034.63;5093453;27;41944;-78
2024/03/13 12:19:37;;;;;;;1.00;1.00;;;;;;;20.23;44.12;99027.28;5097316;27;43071;-75
2024/03/13 12:22:05;;;;;;;1.10;1.00;;;;;;;19.93;44.98;99014.19;5116930;27;42263;-76
2024/03/13 12:24:33;;;;;;;1.00;0.90;;;;;;;19.90;45.55;99025.25;5099715;27;40205;-80
2024/03/13 12:27:00;;;;;;;1.20;1.10;;;;;;;19.81;45.27;99026.13;5099851;27;40394;-81
2024/03/13 12:29:29;;;;;;;1.20;1.10;;;;;;;19.78;45.50;99021.91;5100153;27;44010;-76
2024/03/13 12:31:56;;;;;;;1.30;1.20;;;;;;;19.82;45.53;99019.75;5084256;27;41984;-77
2024/03/13 12:34:30;;;;;;;1.00;1.00;;;;;;;19.89;45.09;99013.66;5119012;27;41039;-78
2024/03/13 12:36:58;;;;;;;1.60;1.50;;;;;;;19.86;46.00;99013.94;5084736;27;40402;-82
2024/03/13 12:39:25;;;;;;;0.80;0.80;;;;;;;19.71;46.10;99000.16;5100418;27;41918;-77
2024/03/13 12:41:54;;;;;;;1.10;1.10;;;;;;;19.57;45.88;99013.25;5117607;27;42975;-83
2024/03/13 12:44:25;;;;;;;1.00;1.00;;;;;;;19.45;46.87;99003.66;5117913;27;40330;-79
2024/03/13 12:46:52;;;;;;;1.20;1.10;;;;;;;19.38;46.73;98998.06;5101263;27;42480;-81
2024/03/13 12:49:20;;;;;;;0.80;0.80;;;;;;;19.42;46.93;98998.59;5100594;27;43728;-77
2024/03/13 12:51:54;;;;;;;1.83;1.30;;;;;;;19.34;46.81;98994.81;5085537;27;40301;-76
2024/03/13 12:54:25;;;;;;;1.00;1.00;;;;;;;19.35;47.55;98987.59;5100254;27;40352;-77
2024/03/13 12:56:52;;;;;;;0.60;0.60;;;;;;;19.61;47.21;98983.25;5083365;27;42306;-82
2024/03/13 12:59:25;;;;;;;1.13;1.10;;;;;;;19.75;46.94;98978.38;5100846;27;43625;-76
2024/03/13 13:01:53;;;;;;;1.30;1.20;;;;;;;19.85;46.64;98990.75;5082490;27;42074;-75
2024/03/13 13:04:21;;;;;;;1.60;1.00;;;;;;;19.79;46.79;98982.44;5115795;27;40547;-74
2024/03/13 13:06:49;;;;;;;1.10;1.00;;;;;;;19.70;47.36;98982.34;5099417;27;42805;-82
2024/03/13 13:09:18;;;;;;;1.10;1.00;;;;;;;19.58;47.16;98982.72;5099094;27;42730;-77
2024/03/13 13:11:46;;;;;;;1.20;1.10;;;;;;;19.44;47.34;98975.97;5100007;27;41573;-80
2024/03/13 13:14:13;;;;;;;1.27;1.10;;;;;;;19.32;47.83;98977.16;5098910;27;40320;-78
2024/03/13 13:16:41;;;;;;;1.20;1.10;;;;;;;19.16;47.88;98979.63;5082913;27;40745;-81
2024/03/13 13:19:09;;;;;;;1.20;1.10;;;;;;;19.00;48.35;98978.41;5116146;27;42991;-80
2024/03/13 13:21:38;;;;;;;1.20;1.10;;;;;;;18.84;48.72;98977.31;5082371;27;40772;-77
2024/03/13 13:24:05;;;;;;;0.90;0.90;;;;;;;18.66;49.02;98979.91;5099091;27;40369;-78
2024/03/13 13:26:33;;;;;;;1.10;1.00;;;;;;;18.50;49.40;98974.25;5098860;27;40800;-81
2024/03/13 13:29:01;;;;;;;1.10;1.00;;;;;;;18.37;49.76;98973.69;5098534;27;43561;-78
2024/03/13 13:31:28;;;;;;;2.13;1.00;;;;;;;18.27;49.92;98966.50;5082969;27;41441;-80
2024/03/13 13:33:56;;;;;;;1.37;0.97;;;;;;;18.23;50.23;98966.91;5116469;27;40339;-77
2024/03/13 13:36:24;;;;;;;1.83;0.80;;;;;;;18.12;50.62;98954.50;5082605;27;40932;-81
2024/03/13 13:38:52;;;;;;;1.87;1.20;;;;;;;18.17;50.78;98968.34;5099285;27;42595;-78
2024/03/13 13:41:20;;;;;;;2.27;1.00;;;;;;;18.11;51.34;98960.84;5083138;27;42304;-78
2024/03/13 13:43:47;;;;;;;3.40;1.40;;;;;;;18.00;51.31;98955.63;5099257;27;40139;-81
2024/03/13 13:46:15;;;;;;;1.17;1.07;;;;;;;17.99;51.33;98970.00;5099947;27;42048;-78
2024/03/13 13:48:43;;;;;;;1.50;1.10;;;;;;;17.94;51.55;98965.06;5116213;27;43248;-79
2024/03/13 13:51:11;;;;;;;1.10;1.00;;;;;;;17.84;52.00;98950.81;5116255;27;44048;-78
2024/03/13 13:53:38;;;;;;;2.67;1.13;;;;;;;17.79;51.89;98958.44;5099217;27;39308;-78
2024/03/13 13:56:06;;;;;;;1.13;0.83;;;;;;;17.87;52.25;98961.25;5082776;27;40984;-76
2024/03/13 13:58:34;;;;;;;0.83;0.83;;;;;;;17.79;52.93;98945.03;5115520;27;43430;-82
2024/03/13 14:01:03;;;;;;;0.73;0.70;;;;;;;17.88;52.74;98946.03;5114639;27;42162;-80
2024/03/13 14:03:30;;;;;;;0.70;0.60;;;;;;;17.88;52.83;98954.06;5115366;27;40067;-83
2024/03/13 14:05:59;;;;;;;0.90;0.70;;;;;;;17.96;53.24;98954.22;5098571;27;42837;-78
2024/03/13 14:08:27;;;;;;;2.07;1.00;;;;;;;17.90;53.69;98944.06;5115374;27;44186;-78
2024/03/13 14:10:56;;;;;;;1.00;0.90;;;;;;;17.90;53.34;98936.03;5098202;27;42870;-84
2024/03/13 14:13:24;;;;;;;2.00;1.03;;;;;;;17.99;53.64;98953.09;5098505;27;38955;-78
2024/03/13 14:15:51;;;;;;;1.23;0.70;;;;;;;17.93;53.79;98933.88;5080954;27;40682;-82
2024/03/13 14:18:19;;;;;;;1.27;1.00;;;;;;;18.02;53.92;98945.63;5114882;27;43807;-79
2024/03/13 14:20:48;;;;;;;1.23;1.13;;;;;;;18.00;53.95;98955.63;5098143;27;41386;-80
2024/03/13 14:23:17;;;;;;;1.20;1.10;;;;;;;17.89;54.09;98937.00;5115256;27;40913;-78
2024/03/13 14:25:45;;;;;;;1.57;1.20;;;;;;;17.85;54.59;98946.31;5098284;27;40740;-80
2024/03/13 14:28:15;;;;;;;1.57;0.97;;;;;;;17.70;55.00;98931.63;5097357;27;41954;-78
2024/03/13 14:30:44;;;;;;;1.33;1.23;;;;;;;17.62;55.05;98943.00;5098820;27;42134;-76
2024/03/13 14:33:12;;;;;;;1.30;0.90;;;;;;;17.50;55.92;98941.41;5098762;27;39760;-81
2024/03/13 14:35:39;;;;;;;1.57;1.27;;;;;;;17.36;56.02;98939.97;5098747;27;40971;-80
2024/03/13 14:38:07;;;;;;;1.67;1.20;;;;;;;17.29;56.25;98941.50;5098309;27;42874;-81
2024/03/13 14:40:35;;;;;;;1.70;1.30;;;;;;;17.25;56.20;98942.75;5098632;27;41070;-78
2024/03/13 14:43:03;;;;;;;1.20;1.10;;;;;;;17.11;56.43;98924.41;5098152;27;41472;-80
2024/03/13 14:45:31;;;;;;;1.30;1.20;;;;;;;17.14;56.84;98945.53;5099105;27;41123;-82
2024/03/13 14:47:59;;;;;;;1.30;1.00;;;;;;;17.07;56.70;98934.50;5098436;27;41997;-79
2024/03/13 14:50:26;;;;;;;1.30;1.10;;;;;;;17.08;56.90;98930.84;5081851;27;41145;-79
2024/03/13 14:52:54;;;;;;;1.40;1.30;;;;;;;16.98;57.13;98929.13;5115339;27;40919;-80